Thunder radar more information blitzortung!


Radar de pluja more information rain snow radar


Visita la nostra xarxa de llocs de meteo:

Template documentation
and downloads

And another site



No particular awareness of the weather is required.    There are no Weather-warnings

Pagina Historial Weather Underground text

Diari Resum May 3, 2017 Unitats:  Imperial    Mètric   Tant
« Previous Dia
SegĂźent Dia »
Diari Setmana Mensual Anual Personalitzada
  Maxima: Minima: Media:
Temperatura: 61.2 °F 51.8 °F 57 °F
Punt de rosada: 55.4 °F 46.2 °F 50.9 °F
Humitat: 90 % 64 % 80 %
Wind Speed: 9.2 mph 0 mph 3.3 mph
RĂ fegues de vent: 9.2 mph - -
Vent:- - East
Pression baro: 30.1 in 30 in -
Precipitacions: 0.25 in    
Historical Graphs
 
 
Dades de taula per May 3, 2017
Temps Temperatura Punt de rosada Pression baro Vent Wind Speed RĂ fegues de vent Humitat Rainfall Rate (Hourly)
11:10 58.5 °F 46.8 °F 30.1 in East 1 mph 3 mph 65 % 0 in
11:11 58.8 °F 47.1 °F 30.1 in NE 2.3 mph 2.4 mph 65 % 0 in
11:12 58.8 °F 47.1 °F 30.1 in ESE 2.3 mph 2.3 mph 65 % 0 in
11:13 58.5 °F 46.8 °F 30.1 in ENE 2.3 mph 2.4 mph 65 % 0 in
11:18 58.5 °F 46.2 °F 30.1 in ESE 4.6 mph 4.6 mph 64 % 0 in
11:23 58.5 °F 46.8 °F 30.1 in SE 3.5 mph 3.6 mph 65 % 0 in
11:28 58.6 °F 46.9 °F 30.1 in ESE 2.3 mph 2.4 mph 65 % 0 in
11:33 58.6 °F 46.9 °F 30.1 in SE 2.3 mph 2.3 mph 65 % 0 in
11:38 59 °F 47.1 °F 30.1 in NE 3.5 mph 3.5 mph 65 % 0 in
11:43 59 °F 47.1 °F 30.1 in SSW 3.5 mph 3.5 mph 65 % 0 in
11:48 60.1 °F 48.7 °F 30.1 in ESE 3.8 mph 3.8 mph 66 % 0 in
11:53 59.9 °F 48 °F 30.1 in SE 5.8 mph 5.8 mph 65 % 0 in
11:58 59.7 °F 47.8 °F 30.1 in SE 3.5 mph 3.5 mph 65 % 0 in
12:03 60.1 °F 48.4 °F 30.1 in ENE 6.9 mph 6.9 mph 65 % 0 in
12:08 60.1 °F 48.4 °F 30.1 in ENE 3.5 mph 3.5 mph 65 % 0 in
12:13 60.1 °F 48.4 °F 30.1 in NE 4.6 mph 4.6 mph 65 % 0 in
12:18 60.1 °F 47.8 °F 30.1 in NE 3.5 mph 3.5 mph 64 % 0 in
12:20 60.3 °F 48 °F 30.1 in ESE 6.9 mph 6.9 mph 64 % 0 in
12:25 60.3 °F 48 °F 30.1 in East 4.6 mph 4.6 mph 64 % 0 in
12:30 60.3 °F 48 °F 30.1 in NNE 4.6 mph 4.6 mph 64 % 0 in
12:35 60.4 °F 48.6 °F 30.1 in East 3.5 mph 3.5 mph 65 % 0 in
12:40 60.6 °F 48.4 °F 30.1 in NNE 4.6 mph 4.6 mph 64 % 0 in
12:45 60.6 °F 48.4 °F 30.1 in ENE 3.5 mph 3.5 mph 64 % 0 in
12:50 60.8 °F 48.9 °F 30.1 in NE 4.6 mph 4.6 mph 65 % 0 in
12:55 60.4 °F 48.6 °F 30.1 in SE 2.6 mph 2.9 mph 65 % 0 in
13:00 60.4 °F 48.6 °F 30.1 in SSE 5.8 mph 5.8 mph 65 % 0 in
13:05 60.1 °F 48.4 °F 30.1 in East 4.6 mph 4.6 mph 65 % 0 in
13:10 60.1 °F 48.4 °F 30.1 in ENE 4.6 mph 4.6 mph 65 % 0 in
13:15 60.1 °F 48.7 °F 30.1 in East 5.8 mph 5.8 mph 66 % 0 in
13:20 59.9 °F 48.9 °F 30.1 in ESE 5.8 mph 5.8 mph 67 % 0 in
13:25 59.7 °F 49.1 °F 30.1 in SE 4.6 mph 4.6 mph 68 % 0 in
13:30 59.5 °F 48.9 °F 30.1 in ENE 3.5 mph 3.5 mph 68 % 0 in
13:35 59.5 °F 49.5 °F 30.1 in East 4.6 mph 4.6 mph 69 % 0 in
13:40 59.4 °F 49.3 °F 30.1 in ESE 4.6 mph 4.6 mph 69 % 0 in
13:45 59.2 °F 49.5 °F 30.1 in East 4 mph 4 mph 70 % 0 in
13:50 59 °F 49.6 °F 30.1 in East 3.5 mph 3.5 mph 71 % 0 in
13:55 59 °F 50 °F 30.1 in ENE 3.5 mph 3.5 mph 72 % 0 in
14:00 58.8 °F 49.8 °F 30.1 in ENE 4.6 mph 4.6 mph 72 % 0 in
14:05 58.5 °F 50.2 °F 30.1 in ENE 3.5 mph 3.5 mph 74 % 0 in
14:10 58.1 °F 49.8 °F 30.1 in ENE 4.6 mph 4.6 mph 74 % 0 in
14:15 58.1 °F 50.9 °F 30.1 in ENE 2.3 mph 2.3 mph 77 % 0 in
14:20 57.7 °F 50.5 °F 30.1 in NNE 3.5 mph 3.5 mph 77 % 0 in
14:25 57.6 °F 50.7 °F 30.1 in NNE 3.5 mph 3.5 mph 78 % 0 in
14:30 57.2 °F 50.4 °F 30.1 in ENE 4.6 mph 4.6 mph 78 % 0 in
14:35 57 °F 50.2 °F 30.1 in NNW 3.5 mph 3.5 mph 78 % 0.04 in
14:40 56.8 °F 50.2 °F 30.1 in North 3.5 mph 3.5 mph 78 % 0.12 in
14:45 56.3 °F 49.8 °F 30.1 in NE 5.8 mph 5.8 mph 79 % 0.17 in
14:50 56.1 °F 50 °F 30.1 in ENE 4.6 mph 4.6 mph 80 % 0.17 in
14:55 56.1 °F 50.4 °F 30.1 in NNE 2.3 mph 2.3 mph 81 % 0.2 in
15:00 56.1 °F 50.4 °F 30.1 in ENE 3.6 mph 3.6 mph 81 % 0.2 in
15:05 55.9 °F 50.2 °F 30.1 in ENE 3.5 mph 3.5 mph 81 % 0.2 in
15:10 55.8 °F 50.4 °F 30.1 in ENE 4.6 mph 4.6 mph 82 % 0.2 in
15:15 55.6 °F 50.2 °F 30.1 in ENE 4.6 mph 4.6 mph 82 % 0.2 in
15:20 55.8 °F 50.7 °F 30.1 in ENE 2.6 mph 2.6 mph 83 % 0.25 in
15:25 55.9 °F 50.9 °F 30.1 in ENE 3.5 mph 3.5 mph 83 % 0.25 in
15:30 55.8 °F 50.7 °F 30.1 in East 3.5 mph 3.5 mph 83 % 0.25 in
15:35 55.9 °F 51.3 °F 30.1 in ESE 5.9 mph 5.9 mph 84 % 0.21 in
15:40 55.9 °F 51.3 °F 30.1 in ESE 8.1 mph 8.1 mph 84 % 0.13 in
15:45 56.1 °F 51.4 °F 30 in ESE 3.5 mph 3.5 mph 84 % 0.08 in
15:50 56.1 °F 51.6 °F 30 in ESE 4.6 mph 4.6 mph 85 % 0.08 in
15:55 55.9 °F 51.3 °F 30 in SE 5.8 mph 5.8 mph 84 % 0.05 in
16:00 55.9 °F 51.3 °F 30.1 in ESE 8.1 mph 8.1 mph 84 % 0.05 in
16:05 56.5 °F 51.6 °F 30.1 in East 5.8 mph 5.8 mph 84 % 0.05 in
16:10 56.7 °F 52.2 °F 30.1 in ENE 3.5 mph 3.5 mph 85 % 0.05 in
16:15 56.8 °F 52.3 °F 30.1 in East 5.9 mph 5.9 mph 85 % 0.05 in
16:20 56.7 °F 52 °F 30.1 in NNE 4.6 mph 4.6 mph 84 % 0 in
16:25 56.8 °F 52.2 °F 30.1 in ENE 3.5 mph 3.5 mph 84 % 0 in
16:30 57.2 °F 52.7 °F 30.1 in NNE 5.8 mph 5.8 mph 85 % 0 in
16:35 57.2 °F 52.3 °F 30.1 in NNE 3.8 mph 3.8 mph 84 % 0 in
16:40 57 °F 52.2 °F 30.1 in NNE 5.8 mph 5.8 mph 84 % 0 in
16:45 57.2 °F 52.7 °F 30.1 in NNE 4.6 mph 4.6 mph 85 % 0 in
16:50 57.4 °F 52.9 °F 30.1 in NNE 2.3 mph 2.3 mph 85 % 0 in
16:55 57.2 °F 52.3 °F 30.1 in NNE 3.5 mph 3.5 mph 84 % 0 in
17:00 57.2 °F 52.7 °F 30 in East 4.6 mph 4.6 mph 85 % 0 in
17:01 57.2 °F 52.7 °F 30 in East 4.6 mph 4.6 mph 85 % 0 in
17:06 57.4 °F 52.9 °F 30 in East 3.5 mph 3.5 mph 85 % 0 in
17:11 57.4 °F 52.5 °F 30 in ENE 3.5 mph 3.5 mph 84 % 0 in
17:16 57.6 °F 53.1 °F 30.1 in ENE 4.6 mph 4.6 mph 85 % 0 in
17:21 57.7 °F 52.9 °F 30.1 in SSE 3.5 mph 3.5 mph 84 % 0 in
17:26 58.1 °F 53.2 °F 30.1 in ESE 2.2 mph 2.2 mph 84 % 0 in
17:31 58.3 °F 53.4 °F 30.1 in ENE 3.6 mph 3.6 mph 84 % 0 in
17:36 58.5 °F 53.6 °F 30.1 in ESE 2.3 mph 2.3 mph 84 % 0 in
17:41 59.2 °F 54.7 °F 30.1 in ESE 3.1 mph 3.1 mph 85 % 0 in
17:46 59.4 °F 54.5 °F 30.1 in ESE 3.5 mph 3.5 mph 84 % 0 in
17:51 60.1 °F 54.9 °F 30.1 in SSE 2.3 mph 2.3 mph 83 % 0 in
17:56 60.6 °F 55.4 °F 30.1 in South 4.6 mph 4.6 mph 83 % 0 in
18:01 61 °F 55 °F 30 in South 2.3 mph 2.3 mph 81 % 0 in
18:06 60.8 °F 54.9 °F 30 in SSE 3.5 mph 3.5 mph 81 % 0 in
18:11 60.8 °F 54.9 °F 30 in SSW 3.5 mph 3.5 mph 81 % 0 in
18:16 60.6 °F 54.9 °F 30 in ESE 3.5 mph 3.5 mph 81 % 0 in
18:18 60.4 °F 54.7 °F 30 in ESE 4.6 mph 4.6 mph 81 % 0 in
18:21 60.4 °F 54.7 °F 30 in East 2.3 mph 2.3 mph 81 % 0 in
18:26 61 °F 55 °F 30 in SSE 3.1 mph 3.1 mph 81 % 0 in
18:31 61.2 °F 54.9 °F 30 in SSE 3.5 mph 3.5 mph 80 % 0 in
18:36 60.4 °F 54.1 °F 30 in ENE 5.8 mph 5.8 mph 80 % 0 in
18:41 60.1 °F 54.1 °F 30 in ESE 4.6 mph 4.6 mph 81 % 0 in
18:46 59.7 °F 54 °F 30 in ESE 5.8 mph 5.8 mph 81 % 0 in
18:51 59.5 °F 54 °F 30 in ESE 3.8 mph 3.8 mph 82 % 0 in
18:56 59.5 °F 54 °F 30 in ESE 4.7 mph 4.7 mph 82 % 0 in
19:01 59.4 °F 54 °F 30 in NE 4.6 mph 4.6 mph 82 % 0 in
19:06 59.5 °F 54 °F 30 in ESE 5.8 mph 5.8 mph 82 % 0 in
19:11 59.5 °F 53.8 °F 30 in ESE 4.6 mph 4.6 mph 81 % 0 in
19:16 59.7 °F 54 °F 30 in ENE 4.6 mph 4.6 mph 81 % 0 in
19:20 54 °F 49.8 °F 30.1 in Calm     86 % 0 in
19:21 59.5 °F 53.8 °F 30 in ESE 7.4 mph 7.4 mph 81 % 0 in
19:26 59.4 °F 54 °F 30 in ESE 4.6 mph 4.6 mph 82 % 0 in
19:30 54 °F 50.2 °F 30.1 in Calm   1 mph 87 % 0 in
19:31 59.4 °F 54 °F 30 in NNE 4.6 mph 4.6 mph 82 % 0 in
19:36 59.2 °F 53.4 °F 30 in ESE 5.8 mph 5.8 mph 81 % 0 in
19:40 53.8 °F 50 °F 30.1 in NE 1 mph 2 mph 87 % 0 in
19:41 59.4 °F 53.4 °F 30 in SSE 3.1 mph 3.1 mph 81 % 0 in
19:46 59.4 °F 53.2 °F 30 in ENE 5.6 mph 5.6 mph 80 % 0 in
19:50 53.6 °F 49.8 °F 30.1 in Calm     87 % 0 in
19:51 59.5 °F 53.4 °F 30 in NE 5.8 mph 5.8 mph 80 % 0 in
19:56 59.4 °F 52.9 °F 30 in SE 6 mph 6 mph 79 % 0 in
20:00 53.4 °F 49.6 °F 30.1 in Calm     87 % 0 in
20:01 59.2 °F 52.7 °F 30 in ENE 4.6 mph 4.6 mph 79 % 0 in
20:06 58.8 °F 52.3 °F 30 in ENE 8.1 mph 8.1 mph 79 % 0 in
20:10 53.2 °F 49.5 °F 30.1 in Calm   1 mph 87 % 0 in
20:11 58.6 °F 52.5 °F 30 in ESE 9.2 mph 9.2 mph 80 % 0 in
20:16 58.5 °F 52.3 °F 30 in NE 9.2 mph 9.2 mph 80 % 0 in
20:20 53.4 °F 50 °F 30.1 in Calm     88 % 0 in
20:21 58.3 °F 52.5 °F 30 in ENE 6.9 mph 6.9 mph 81 % 0 in
20:26 58.3 °F 52.9 °F 30 in ENE 6.9 mph 6.9 mph 82 % 0 in
20:29 58.1 °F 52.5 °F 30 in ENE 3.5 mph 3.5 mph 82 % 0 in
20:30 53.2 °F 49.8 °F 30.1 in Calm     88 % 0 in
20:31 58.1 °F 52.3 °F 30 in ESE 5.8 mph 5.8 mph 81 % 0 in
20:36 57.9 °F 52.5 °F 30 in ENE 4 mph 4 mph 82 % 0 in
20:40 53.1 °F 49.6 °F 30.1 in Calm     88 % 0 in
20:41 57.7 °F 52.3 °F 30 in East 5.8 mph 5.8 mph 82 % 0 in
20:46 57.7 °F 52.3 °F 30 in ESE 4.3 mph 4.3 mph 82 % 0 in
20:50 52.9 °F 49.5 °F 30.1 in Calm     88 % 0 in
20:51 57.6 °F 52.2 °F 30 in NNE 4.6 mph 4.6 mph 82 % 0 in
20:56 57.4 °F 52 °F 30 in SE 5.8 mph 5.8 mph 82 % 0 in
21:00 52.9 °F 49.5 °F 30.1 in Calm     88 % 0 in
21:01 57.4 °F 52 °F 30 in ESE 3.6 mph 3.6 mph 82 % 0 in
21:06 57.2 °F 51.8 °F 30 in ESE 4.6 mph 4.6 mph 82 % 0 in
21:10 52.5 °F 49.1 °F 30.1 in Calm     88 % 0 in
21:11 57 °F 51.6 °F 30 in ESE 4.6 mph 4.6 mph 82 % 0 in
21:16 56.8 °F 51.4 °F 30 in ESE 3.5 mph 3.5 mph 82 % 0 in
21:20 52.7 °F 49.3 °F 30.1 in Calm     88 % 0 in
21:21 56.7 °F 51.3 °F 30 in ENE 3.5 mph 3.5 mph 82 % 0 in
21:26 56.5 °F 51.1 °F 30 in ENE 4.6 mph 4.6 mph 82 % 0 in
21:30 52.7 °F 49.5 °F 30.1 in Calm     89 % 0 in
21:31 56.3 °F 50.9 °F 30 in NE 2.3 mph 2.3 mph 82 % 0 in
21:36 56.1 °F 50.7 °F 30 in NE 2.3 mph 2.3 mph 82 % 0 in
21:40 52.7 °F 49.5 °F 30 in Calm     89 % 0 in
21:41 56.1 °F 50.7 °F 30 in ESE 3.5 mph 3.5 mph 82 % 0 in
21:46 55.9 °F 50.5 °F 30 in ENE 2.3 mph 2.3 mph 82 % 0 in
21:49 55.9 °F 50.9 °F 30 in ESE 3.5 mph 3.5 mph 83 % 0 in
21:50 55.9 °F 50.9 °F 30 in ENE 1.4 mph 1.4 mph 83 % 0 in
21:52 55.9 °F 50.5 °F 30 in East 2.3 mph 2.3 mph 82 % 0 in
21:57 55.8 °F 50.7 °F 30 in ENE 4.6 mph 4.6 mph 83 % 0 in
22:00 52.5 °F 49.5 °F 30 in Calm     89 % 0 in
22:02 55.8 °F 50.7 °F 30.1 in SE 4.6 mph 4.6 mph 83 % 0 in
22:07 55.6 °F 50.5 °F 30.1 in ENE 3.5 mph 3.5 mph 83 % 0 in
22:10 52.5 °F 49.5 °F 30 in Calm     89 % 0 in
22:12 55.6 °F 50.5 °F 30.1 in ESE 3.5 mph 3.5 mph 83 % 0 in
22:17 55.4 °F 50.4 °F 30.1 in East 3.3 mph 3.3 mph 83 % 0 in
22:20 52.3 °F 49.3 °F 30 in Calm     89 % 0 in
22:22 55.2 °F 50.2 °F 30.1 in ENE 2.2 mph   83 % 0 in
22:27 55 °F 50.4 °F 30.1 in Calm     84 % 0 in
22:30 52.3 °F 49.5 °F 30 in Calm     90 % 0 in
22:32 55 °F 50.4 °F 30.1 in ENE 1.4 mph   84 % 0 in
22:37 54.9 °F 50.2 °F 30.1 in East 2.3 mph 2.3 mph 84 % 0 in
22:40 52.3 °F 49.5 °F 30 in Calm     90 % 0 in
22:42 54.9 °F 50.2 °F 30.1 in East 0.9 mph   84 % 0 in
22:47 54.7 °F 49.8 °F 30.1 in East 1.2 mph 1.2 mph 84 % 0 in
22:50 52.3 °F 49.5 °F 30 in Calm   1 mph 90 % 0 in
22:52 54.7 °F 49.8 °F 30.1 in Calm     84 % 0 in
22:57 54.7 °F 49.8 °F 30.1 in NNE 2.3 mph 2.3 mph 84 % 0 in
23:00 52.2 °F 49.3 °F 30 in Calm     90 % 0 in
23:02 54.5 °F 49.8 °F 30.1 in Calm     84 % 0 in
23:07 54.5 °F 49.8 °F 30.1 in Calm     84 % 0 in
23:12 54.3 °F 49.6 °F 30.1 in Calm     84 % 0 in
23:17 54.3 °F 49.6 °F 30.1 in Calm     84 % 0 in
23:20 51.8 °F 48.7 °F 30 in Calm   2 mph 89 % 0 in
23:22 54.3 °F 49.8 °F 30.1 in Calm     85 % 0 in
23:27 54.3 °F 49.8 °F 30.1 in NNW 1.2 mph   85 % 0 in
23:30 51.8 °F 48.7 °F 30 in SW 1 mph 2 mph 89 % 0 in
23:32 54.3 °F 49.8 °F 30.1 in Calm     85 % 0 in
23:37 54.1 °F 49.5 °F 30.1 in Calm     84 % 0 in
23:40 52 °F 49.1 °F 30 in Calm   1 mph 90 % 0 in
23:42 54.1 °F 49.6 °F 30.1 in Calm     85 % 0 in
23:47 54.3 °F 49.8 °F 30.1 in NE 2.3 mph 2.3 mph 85 % 0 in
23:50 52 °F 49.1 °F 30 in Calm     90 % 0 in
23:52 54.1 °F 50 °F 30.1 in Calm     86 % 0 in
23:57 54.1 °F 50 °F 30.1 in NNE 0.9 mph   86 % 0 in
Meteo Sesrovires
Elogis d' Weather Underground - 3.5 mb

Guio original per  Jim McMurry - jmcmurry@mwt.net Adaptat per a la plantilla per  Wim van der Kuil - Leuven-Template.eu

Trobareu la nostra informacio del temps tambe a:

Weather Underground

AWEKAS